Wetterdaten: aktuell Donnerstag, 23.05.2019 04:40
Datum Zeit Temp. A. GH5 cm GH Feuchte A. Luftdruck Regen Wind Richtung Richtung Windben
23.05.2019 04:40 11,7 C 15,5 C 11,6 C 81 % 1011,1 hPa 0,2 mm 0,0 km/h W 270 0,0 km/h
23.05.2019 03:40 11,7 C 15,7 C 11,5 C 78 % 1010,9 hPa 0,0 mm 0,0 km/h O-NO 67 0,0 km/h
23.05.2019 02:40 11,5 C 15,7 C 11,4 C 80 % 1011,2 hPa 0,0 mm 0,4 km/h O-NO 67 0,0 km/h
23.05.2019 01:40 11,4 C 15,5 C 11,4 C 76 % 1011,2 hPa 0,0 mm 1,0 km/h O-NO 67 0,0 km/h
23.05.2019 00:40 11,9 C 16,2 C 11,4 C 72 % 1011,3 hPa 0,0 mm 0,0 km/h SW 225 0,0 km/h
22.05.2019 23:40 12,1 C 16,2 C 11,6 C 71 % 1010,9 hPa 0,0 mm 0,0 km/h SW 225 0,0 km/h
22.05.2019 22:40 13,5 C 17,3 C 12,9 C 67 % 1010,9 hPa 0,0 mm 0,0 km/h SO 135 0,0 km/h
22.05.2019 21:40 14,6 C 18,1 C 14,1 C 64 % 1010,4 hPa 0,0 mm 0,0 km/h O-SO 112 0,0 km/h
22.05.2019 20:40 16,7 C 19,3 C 16,3 C 57 % 1010,0 hPa 0,0 mm 1,0 km/h O-SO 112 2,1 km/h
22.05.2019 19:40 18,7 C 21,0 C 20,6 C 51 % 1009,6 hPa 0,0 mm 6,6 km/h O-SO 112 13,9 km/h
22.05.2019 18:40 20,1 C 22,0 C 22,4 C 50 % 1009,1 hPa 0,0 mm 2,3 km/h S-SO 157 4,4 km/h
22.05.2019 17:40 21,1 C 23,7 C 25,0 C 48 % 1008,6 hPa 0,0 mm 7,1 km/h W 270 4,8 km/h
22.05.2019 16:40 19,9 C 23,1 C 22,7 C 52 % 1008,6 hPa 0,0 mm 7,1 km/h SO 135 6,2 km/h
22.05.2019 15:40 19,9 C 22,9 C 22,7 C 50 % 1008,6 hPa 0,0 mm 7,9 km/h O-SO 112 5,8 km/h
22.05.2019 14:40 21,5 C 24,7 C 26,4 C 48 % 1007,9 hPa 0,0 mm 13,5 km/h NO 45 13,5 km/h
22.05.2019 13:40 21,3 C 23,8 C 25,8 C 54 % 1007,3 hPa 0,0 mm 2,3 km/h SW 225 2,3 km/h
22.05.2019 12:40 19,9 C 22,1 C 22,7 C 56 % 1006,9 hPa 0,0 mm 3,1 km/h O-SO 112 5,0 km/h
22.05.2019 11:40 19,6 C 25,0 C 25,2 C 57 % 1006,4 hPa 0,0 mm 6,0 km/h NO 45 5,4 km/h
22.05.2019 10:40 18,0 C 21,0 C 21,7 C 60 % 1006,1 hPa 0,0 mm 6,4 km/h O-NO 67 6,0 km/h
22.05.2019 09:40 17,5 C 20,8 C 22,8 C 65 % 1005,9 hPa 0,0 mm 5,2 km/h O-NO 67 7,1 km/h
22.05.2019 08:40 15,0 C 18,5 C 17,3 C 73 % 1005,8 hPa 0,0 mm 1,2 km/h O-NO 67 2,1 km/h
22.05.2019 07:40 13,7 C 17,2 C 15,0 C 74 % 1005,5 hPa 0,0 mm 2,5 km/h O-NO 67 3,7 km/h
22.05.2019 06:40 12,5 C 15,8 C 12,4 C 76 % 1005,1 hPa 0,0 mm 2,3 km/h O-NO 67 2,7 km/h
22.05.2019 05:40 12,7 C 15,9 C 11,6 C 76 % 1004,8 hPa 0,0 mm 5,8 km/h O-SO 112 4,1 km/h
22.05.2019 05:00 11,9 C 15,5 C 11,5 C 81 % 1004,7 hPa 0,0 mm 0,0 km/h O-NO 67 0,0 km/h
_ Min-Zeit 01:40 05:15 01:20 14:10 05:00 - 05:00 - - 05:00
Minimum _ 11,4 C 15,4 C 11,2 C 46 % 1004,7 hPa - 0,0 km/h - - 0,0 km/h
_ Max-Zeit 14:20 11:50 12:00 05:00 00:25 04:35 14:10 - - 14:45
Maximum _ 22,1 C 27,0 C 28,2 C 81 % 1011,3 hPa 0,2 mm 15,4 km/h
O-NO
- - 26,3 km/h
O-SO
Durchschnitt _ 15,8 C 19,2 C 17,5 C 65 % 1008,1 hPa #0,2 mm 3,3 km/h O-NO - 4,5 km/h